createdAt,value
2019-01-23T00:03:24.873Z,99500.59
2019-01-23T00:05:49.439Z,99493.95
2019-01-23T00:08:13.874Z,99493.36
2019-01-23T00:10:38.276Z,99489.46
2019-01-23T00:13:03.548Z,99489.86
2019-01-23T00:15:34.379Z,99489.28
2019-01-23T00:17:58.803Z,99475.84
2019-01-23T00:20:23.221Z,99480.13
2019-01-23T00:22:47.634Z,99481.72
2019-01-23T00:28:08.564Z,99483.83
2019-01-23T00:30:32.977Z,99485.53
2019-01-23T00:32:57.388Z,99479.67
2019-01-23T00:35:21.816Z,99477.38
2019-01-23T00:37:46.215Z,99472.97
2019-01-23T00:40:29.985Z,99476.95
2019-01-23T00:43:06.370Z,99469.96
2019-01-23T00:45:30.800Z,99470.56
2019-01-23T00:50:31.780Z,99463.13
2019-01-23T00:52:56.269Z,99455.91
2019-01-23T00:58:15.045Z,99455.09
2019-01-23T01:00:39.459Z,99463.30
2019-01-23T01:03:04.057Z,99461.94
2019-01-23T01:05:28.483Z,99460.20
2019-01-23T01:13:25.573Z,99461.88
2019-01-23T01:15:49.975Z,99458.55
2019-01-23T01:18:14.400Z,99456.84
2019-01-23T01:20:38.807Z,99457.80
2019-01-23T01:23:03.360Z,99463.41
2019-01-23T01:25:27.865Z,99461.69
2019-01-23T01:27:52.314Z,99462.84
2019-01-23T01:30:37.504Z,99456.63
2019-01-23T01:35:41.311Z,99457.37
2019-01-23T01:38:05.805Z,99462.63
2019-01-23T01:40:30.225Z,99457.97
2019-01-23T01:42:54.640Z,99451.48
2019-01-23T01:45:19.075Z,99452.48
2019-01-23T01:47:43.625Z,99453.28
2019-01-23T01:50:27.384Z,99451.23
2019-01-23T01:52:51.795Z,99446.09
2019-01-23T01:55:16.363Z,99447.40
2019-01-23T01:57:40.913Z,99447.80
2019-01-23T02:00:24.758Z,99451.48
2019-01-23T02:02:49.250Z,99440.98
2019-01-23T02:05:14.048Z,99447.52
2019-01-23T02:07:38.592Z,99445.59
2019-01-23T02:10:14.173Z,99444.25
2019-01-23T02:12:38.569Z,99443.05
2019-01-23T02:15:02.972Z,99447.88
2019-01-23T02:23:21.419Z,99438.33
2019-01-23T02:25:45.828Z,99430.52
2019-01-23T02:28:10.256Z,99429.20
2019-01-23T02:30:45.656Z,99427.66
2019-01-23T02:33:10.105Z,99429.17
2019-01-23T02:35:34.534Z,99425.30
2019-01-23T02:37:58.949Z,99424.94
2019-01-23T02:43:20.528Z,99413.59
2019-01-23T02:45:44.927Z,99419.13
2019-01-23T02:48:09.350Z,99417.67
2019-01-23T02:50:33.784Z,99417.57
2019-01-23T02:52:58.223Z,99412.95
2019-01-23T02:55:22.636Z,99410.70
2019-01-23T02:57:47.046Z,99408.94
2019-01-23T03:00:30.814Z,99407.48
2019-01-23T03:03:09.335Z,99404.97
2019-01-23T03:05:26.638Z,99402.97
2019-01-23T03:07:51.034Z,99399.53
2019-01-23T03:13:12.522Z,99401.71
2019-01-23T03:15:36.952Z,99391.52
2019-01-23T03:18:01.344Z,99390.13
2019-01-23T03:20:25.762Z,99389.52
2019-01-23T03:22:50.227Z,99385.79
2019-01-23T03:28:12.017Z,99386.75
2019-01-23T03:30:36.503Z,99391.27
2019-01-23T03:33:00.933Z,99392.16
2019-01-23T03:35:25.323Z,99395.56
2019-01-23T03:37:49.983Z,99384.58
2019-01-23T03:40:35.168Z,99382.50
2019-01-23T03:42:59.693Z,99388.08
2019-01-23T03:45:29.352Z,99388.29
2019-01-23T03:47:53.775Z,99393.38
2019-01-23T03:53:15.021Z,99394.08
2019-01-23T03:55:39.410Z,99393.66
2019-01-23T03:58:03.888Z,99395.05
2019-01-23T04:00:28.305Z,99402.16
2019-01-23T04:03:13.514Z,99396.72
2019-01-23T04:05:37.916Z,99400.48
2019-01-23T04:08:02.331Z,99409.03
2019-01-23T04:10:26.740Z,99411.53
2019-01-23T04:12:51.146Z,99407.67
2019-01-23T04:18:12.585Z,99411.27
2019-01-23T04:20:37.017Z,99409.42
2019-01-23T04:23:01.413Z,99418.37
2019-01-23T04:25:25.854Z,99419.59
2019-01-23T04:27:56.286Z,99422.84
2019-01-23T04:33:18.017Z,99421.25
2019-01-23T04:35:42.449Z,99416.65
2019-01-23T04:38:06.850Z,99414.02
2019-01-23T04:40:44.612Z,99419.11
2019-01-23T04:48:20.868Z,99417.98
2019-01-23T04:55:56.324Z,99422.23
2019-01-23T04:58:20.725Z,99412.53
2019-01-23T05:00:45.142Z,99412.38
2019-01-23T05:03:09.571Z,99411.41
2019-01-23T05:05:33.983Z,99352.83
2019-01-23T05:07:58.413Z,99407.68
2019-01-23T05:10:23.004Z,99411.02
2019-01-23T05:12:47.376Z,99409.78
2019-01-23T05:15:11.941Z,99407.63
2019-01-23T05:17:36.358Z,99408.98
2019-01-23T05:20:00.756Z,99407.23
2019-01-23T05:22:25.203Z,99409.14
2019-01-23T05:24:49.729Z,99405.83
2019-01-23T05:27:14.118Z,99402.08
2019-01-23T05:29:38.536Z,99402.86
2019-01-23T05:32:02.949Z,99402.31
2019-01-23T05:34:27.366Z,99404.81
2019-01-23T05:36:51.772Z,99400.34
2019-01-23T05:39:16.200Z,99402.60
2019-01-23T05:41:40.639Z,99404.13
2019-01-23T05:44:05.107Z,99409.56
2019-01-23T05:46:29.513Z,99403.66
2019-01-23T05:48:53.929Z,99410.33
2019-01-23T05:51:18.363Z,99402.54
2019-01-23T05:53:48.353Z,99410.52
2019-01-23T05:56:12.785Z,99409.99
2019-01-23T05:58:37.199Z,99413.06
2019-01-23T06:01:01.611Z,99413.61
2019-01-23T06:03:26.097Z,99418.88
2019-01-23T06:06:03.107Z,99419.21
2019-01-23T06:08:27.508Z,99423.47
2019-01-23T06:10:51.919Z,99421.13
2019-01-23T06:13:16.312Z,99428.97
2019-01-23T06:15:40.708Z,99429.62
2019-01-23T06:18:05.144Z,99434.31
2019-01-23T06:20:29.571Z,99436.05
2019-01-23T06:22:54.000Z,99427.20
2019-01-23T06:25:18.542Z,99434.26
2019-01-23T06:27:42.979Z,99434.80
2019-01-23T06:30:26.996Z,99428.83
2019-01-23T06:32:51.492Z,99438.99
2019-01-23T06:35:15.966Z,99428.09
2019-01-23T06:37:40.385Z,99440.12
2019-01-23T06:43:02.276Z,99442.28
2019-01-23T06:45:26.688Z,99443.57
2019-01-23T06:47:51.178Z,99437.30
2019-01-23T06:53:14.142Z,99450.14
2019-01-23T06:55:44.270Z,99447.72
2019-01-23T06:58:08.687Z,99449.44
2019-01-23T07:00:33.111Z,99440.93
2019-01-23T07:02:57.500Z,99446.77
2019-01-23T07:05:22.009Z,99445.99
2019-01-23T07:07:46.464Z,99444.87
2019-01-23T07:13:07.442Z,99446.19
2019-01-23T07:15:31.890Z,99449.70
2019-01-23T07:17:56.284Z,99452.91
2019-01-23T07:20:40.040Z,99451.99
2019-01-23T07:23:04.453Z,99443.12
2019-01-23T07:25:48.219Z,99448.67
2019-01-23T07:28:12.627Z,99451.72
2019-01-23T07:33:34.001Z,99455.97
2019-01-23T07:35:58.436Z,99452.81
2019-01-23T07:38:22.841Z,99458.58
2019-01-23T07:40:47.239Z,99458.98
2019-01-23T07:43:11.665Z,99463.86
2019-01-23T07:45:36.058Z,99465.03
2019-01-23T07:48:00.571Z,99466.24
2019-01-23T07:50:37.339Z,99467.59
2019-01-23T07:53:01.762Z,99470.65
2019-01-23T07:55:26.224Z,99471.22
2019-01-23T07:57:50.709Z,99475.63
2019-01-23T08:03:12.158Z,99479.30
2019-01-23T08:05:36.586Z,99478.27
2019-01-23T08:08:01.019Z,99481.78
2019-01-23T08:10:25.484Z,99479.88
2019-01-23T08:12:50.065Z,99485.38
2019-01-23T08:15:34.295Z,99477.17
2019-01-23T08:17:58.686Z,99482.39
2019-01-23T08:23:19.882Z,99480.08
2019-01-23T08:26:03.739Z,99481.02
2019-01-23T08:28:28.188Z,99479.83
2019-01-23T08:30:52.619Z,99488.66
2019-01-23T08:33:17.025Z,99491.02
2019-01-23T08:38:37.137Z,99486.52
2019-01-23T08:41:01.577Z,99486.98
2019-01-23T08:43:38.025Z,99487.09
2019-01-23T08:46:02.471Z,99488.20
2019-01-23T08:48:40.924Z,99482.44
2019-01-23T08:53:50.692Z,99487.13
2019-01-23T08:56:15.133Z,99479.62
2019-01-23T08:58:52.147Z,99481.12
2019-01-23T09:01:16.603Z,99486.07
2019-01-23T09:03:53.013Z,99494.54
2019-01-23T09:06:17.476Z,99490.63
2019-01-23T09:08:54.589Z,99488.00
2019-01-23T09:11:31.187Z,99488.89
2019-01-23T09:13:55.580Z,99490.70
2019-01-23T09:16:26.978Z,99491.08
2019-01-23T09:19:03.879Z,99497.66
2019-01-23T09:21:28.296Z,99495.75
2019-01-23T09:23:52.724Z,99496.17
2019-01-23T09:26:17.202Z,99495.56
2019-01-23T09:28:41.644Z,99503.20
2019-01-23T09:40:34.847Z,99497.58
2019-01-23T09:43:37.839Z,99501.09
2019-01-23T09:46:40.867Z,99500.94
2019-01-23T09:52:40.865Z,99503.95
2019-01-23T09:58:02.206Z,99497.83
2019-01-23T10:01:00.617Z,99500.20
2019-01-23T10:03:25.015Z,99499.50
2019-01-23T10:05:49.444Z,99505.03
2019-01-23T10:08:13.843Z,99501.95
2019-01-23T10:10:38.291Z,99506.67
2019-01-23T10:13:02.805Z,99503.52
2019-01-23T10:18:24.352Z,99499.87
2019-01-23T10:20:48.767Z,99498.39
2019-01-23T10:23:13.194Z,99495.81
2019-01-23T10:25:56.976Z,99497.45
2019-01-23T10:28:21.406Z,99492.31
2019-01-23T10:30:45.806Z,99497.89
2019-01-23T10:33:10.231Z,99494.14
2019-01-23T10:35:34.644Z,99496.00
2019-01-23T10:38:11.705Z,99507.39
2019-01-23T10:40:36.101Z,99506.80
2019-01-23T10:43:12.075Z,99508.22
2019-01-23T10:45:36.499Z,99506.09
2019-01-23T10:48:12.957Z,99500.64
2019-01-23T10:50:37.348Z,99500.69
2019-01-23T10:53:01.760Z,99496.30
2019-01-23T10:55:26.163Z,99498.44
2019-01-23T10:57:50.647Z,99505.66
2019-01-23T11:00:27.662Z,99501.58
2019-01-23T11:02:52.047Z,99500.02
2019-01-23T11:08:12.971Z,99496.23
2019-01-23T11:10:37.390Z,99491.44
2019-01-23T11:13:01.808Z,99491.27
2019-01-23T11:15:26.217Z,99492.38
2019-01-23T11:17:50.614Z,99495.14
2019-01-23T11:20:26.967Z,99495.73
2019-01-23T11:22:51.461Z,99499.25
2019-01-23T11:25:35.207Z,99495.16
2019-01-23T11:27:59.623Z,99496.73
2019-01-23T11:33:21.279Z,99491.63
2019-01-23T11:35:45.683Z,99488.93
2019-01-23T11:38:10.099Z,99481.65
2019-01-23T11:40:34.567Z,99476.09
2019-01-23T11:42:59.050Z,99485.41
2019-01-23T11:45:23.590Z,99488.55
2019-01-23T11:48:00.420Z,99491.45
2019-01-23T11:50:24.826Z,99482.70
2019-01-23T11:53:00.523Z,99478.41
2019-01-23T11:55:25.007Z,99471.80
2019-01-23T12:00:40.440Z,99473.92
2019-01-23T12:03:20.837Z,99474.55
2019-01-23T12:05:55.098Z,99472.58
2019-01-23T12:08:19.604Z,99474.13
2019-01-23T12:10:43.996Z,99476.84
2019-01-23T12:13:08.406Z,99476.48
2019-01-23T12:15:32.812Z,99471.20
2019-01-23T12:17:57.229Z,99477.06
2019-01-23T12:23:18.090Z,99485.83
2019-01-23T12:25:42.586Z,99481.36
2019-01-23T12:28:06.987Z,99486.02
2019-01-23T12:33:28.194Z,99486.81
2019-01-23T12:36:11.963Z,99485.04
2019-01-23T12:38:36.366Z,99480.34
2019-01-23T12:41:00.817Z,99487.10
2019-01-23T12:43:25.218Z,99483.98
2019-01-23T12:45:49.718Z,99482.27
2019-01-23T12:48:14.132Z,99494.39
2019-01-23T12:50:38.606Z,99489.91
2019-01-23T12:53:15.593Z,99484.47
2019-01-23T12:55:40.014Z,99490.64
2019-01-23T12:58:04.563Z,99491.47
2019-01-23T13:03:25.965Z,99489.52
2019-01-23T13:05:50.531Z,99489.52
2019-01-23T13:08:14.945Z,99491.86
2019-01-23T13:10:39.372Z,99492.66
2019-01-23T13:13:03.865Z,99489.06
2019-01-23T13:18:25.287Z,99489.33
2019-01-23T13:20:49.760Z,99492.20
2019-01-23T13:25:49.337Z,99488.70
2019-01-23T13:28:13.735Z,99485.81
2019-01-23T13:33:29.592Z,99497.31
2019-01-23T13:35:54.019Z,99497.12
2019-01-23T13:38:18.431Z,99496.35
2019-01-23T13:40:42.936Z,99498.89
2019-01-23T13:46:04.629Z,99496.34
2019-01-23T13:48:29.029Z,99494.99
2019-01-23T13:50:53.442Z,99494.91
2019-01-23T13:53:17.861Z,99495.95
2019-01-23T13:55:42.357Z,99504.14
2019-01-23T13:58:06.948Z,99500.25
2019-01-23T14:03:28.574Z,99500.43
2019-01-23T14:05:52.970Z,99498.13
2019-01-23T14:08:36.724Z,99502.12
2019-01-23T14:11:01.143Z,99505.26
2019-01-23T14:13:25.595Z,99510.78
2019-01-23T14:15:50.008Z,99504.94
2019-01-23T14:18:14.433Z,99506.46
2019-01-23T14:20:38.846Z,99511.55
2019-01-23T14:23:03.324Z,99512.89
2019-01-23T14:25:27.745Z,99515.25
2019-01-23T14:27:52.143Z,99519.16
2019-01-23T14:35:48.585Z,99517.78
2019-01-23T14:38:13.054Z,99528.46
2019-01-23T14:40:37.492Z,99527.69
2019-01-23T14:43:01.899Z,99529.30
2019-01-23T14:45:26.499Z,99528.69
2019-01-23T14:47:50.925Z,99537.46
2019-01-23T14:55:59.462Z,99548.38
2019-01-23T14:58:23.911Z,99550.89
2019-01-23T15:00:48.300Z,99549.09
2019-01-23T15:03:12.707Z,99551.25
2019-01-23T15:05:37.111Z,99550.84
2019-01-23T15:08:01.586Z,99556.89
2019-01-23T15:13:22.437Z,99557.70
2019-01-23T15:15:46.895Z,99562.59
2019-01-23T15:18:11.305Z,99557.53
2019-01-23T15:20:56.506Z,99561.00
2019-01-23T15:23:20.923Z,99565.69
2019-01-23T15:25:45.306Z,99567.05
2019-01-23T15:28:09.726Z,99570.90
2019-01-23T15:30:34.188Z,99576.42
2019-01-23T15:32:58.685Z,99573.03
2019-01-23T15:35:23.168Z,99585.73
2019-01-23T15:37:47.657Z,99584.55
2019-01-23T15:43:08.661Z,99586.31
2019-01-23T15:45:33.079Z,99588.64
2019-01-23T15:47:57.521Z,99591.89
2019-01-23T15:53:23.956Z,99594.66
2019-01-23T15:55:48.345Z,99598.73
2019-01-23T15:58:12.794Z,99596.26
2019-01-23T16:00:37.199Z,99606.28
2019-01-23T16:03:01.749Z,99601.67
2019-01-23T16:05:26.167Z,99609.52
2019-01-23T16:07:50.574Z,99612.73
2019-01-23T16:13:11.473Z,99615.62
2019-01-23T16:15:35.911Z,99613.16
2019-01-23T16:18:06.425Z,99616.66
2019-01-23T16:20:30.866Z,99614.91
2019-01-23T16:22:55.399Z,99614.28
2019-01-23T16:25:20.046Z,99623.38
2019-01-23T16:28:05.260Z,99626.67
2019-01-23T16:33:27.077Z,99628.41
2019-01-23T16:35:51.473Z,99633.25
2019-01-23T16:38:15.877Z,99639.95
2019-01-23T16:40:40.491Z,99635.03
2019-01-23T16:43:05.051Z,99642.56
2019-01-23T16:45:29.554Z,99636.08
2019-01-23T16:47:54.126Z,99634.11
2019-01-23T16:53:15.730Z,99641.34
2019-01-23T16:55:40.152Z,99644.39
2019-01-23T17:01:01.312Z,99648.62
2019-01-23T17:03:25.823Z,99650.16
2019-01-23T17:05:50.287Z,99649.98
2019-01-23T17:08:14.726Z,99645.00
2019-01-23T17:10:39.130Z,99648.57
2019-01-23T17:13:03.640Z,99650.98
2019-01-23T17:15:28.106Z,99651.08
2019-01-23T17:17:52.809Z,99655.33
2019-01-23T17:20:55.791Z,99656.13
2019-01-23T17:23:20.234Z,99663.77
2019-01-23T17:25:44.643Z,99662.02
2019-01-23T17:28:29.874Z,99663.45
2019-01-23T17:30:54.276Z,99667.31
2019-01-23T17:33:18.689Z,99670.38
2019-01-23T17:35:43.190Z,99669.99
2019-01-23T17:38:07.590Z,99671.16
2019-01-23T17:40:32.205Z,99687.06
2019-01-23T17:42:56.614Z,99690.97
2019-01-23T17:45:40.424Z,99687.23
2019-01-23T17:51:01.290Z,99681.27
2019-01-23T17:53:25.715Z,99683.81
2019-01-23T17:56:02.021Z,99693.47
2019-01-23T17:58:21.574Z,99693.63
2019-01-23T18:01:05.175Z,99701.51
2019-01-23T18:03:29.686Z,99697.70
2019-01-23T18:05:54.169Z,99703.50
2019-01-23T18:08:18.606Z,99710.19
2019-01-23T18:10:54.761Z,99708.44
2019-01-23T18:18:52.763Z,99721.69
2019-01-23T18:21:17.179Z,99723.75
2019-01-23T18:23:41.650Z,99730.03
2019-01-23T18:26:06.317Z,99732.41
2019-01-23T18:28:30.744Z,99733.77
2019-01-23T18:31:33.775Z,99738.21
2019-01-23T18:34:36.823Z,99741.84
2019-01-23T18:37:39.861Z,99744.27
2019-01-23T18:43:39.952Z,99755.61
2019-01-23T18:46:43.003Z,99753.41
2019-01-23T18:49:46.038Z,99757.14
2019-01-23T18:52:32.045Z,99762.92
2019-01-23T18:54:56.484Z,99767.36
2019-01-23T18:57:40.265Z,99767.70
2019-01-23T19:00:25.493Z,99774.79
2019-01-23T19:02:49.951Z,99773.89
2019-01-23T19:08:11.848Z,99784.53
2019-01-23T19:10:36.338Z,99786.53
2019-01-23T19:13:00.743Z,99787.92
2019-01-23T19:15:25.214Z,99788.48
2019-01-23T19:17:49.635Z,99791.24
2019-01-23T19:23:10.473Z,99789.76
2019-01-23T19:25:35.008Z,99796.13
2019-01-23T19:27:59.461Z,99792.80
2019-01-23T19:30:24.000Z,99801.45
2019-01-23T19:32:48.508Z,99802.97
2019-01-23T19:35:13.001Z,99814.56
2019-01-23T19:37:37.438Z,99803.03
2019-01-23T19:40:01.860Z,99806.83
2019-01-23T19:42:26.306Z,99811.66
2019-01-23T19:44:50.734Z,99809.45
2019-01-23T19:47:15.304Z,99816.55
2019-01-23T19:49:39.796Z,99816.19
2019-01-23T19:52:04.287Z,99819.83
2019-01-23T19:54:28.712Z,99823.22
2019-01-23T19:56:53.128Z,99825.38
2019-01-23T19:59:17.561Z,99836.02
2019-01-23T20:01:42.072Z,99839.86
2019-01-23T20:04:06.603Z,99839.79
2019-01-23T20:06:31.034Z,99841.56
2019-01-23T20:08:55.461Z,99847.38
2019-01-23T20:11:21.003Z,99850.64
2019-01-23T20:13:55.113Z,99852.56
2019-01-23T20:16:19.566Z,99853.93
2019-01-23T20:18:43.971Z,99857.84
2019-01-23T20:21:08.466Z,99864.89
2019-01-23T20:23:32.873Z,99863.00
2019-01-23T20:25:57.415Z,99870.48
2019-01-23T20:28:21.860Z,99873.59
2019-01-23T20:30:46.427Z,99871.76
2019-01-23T20:33:10.852Z,99871.19
2019-01-23T20:35:35.357Z,99880.55
2019-01-23T20:37:59.881Z,99880.38
2019-01-23T20:40:36.871Z,99887.41
2019-01-23T20:43:01.309Z,99894.20
2019-01-23T20:45:25.731Z,99903.83
2019-01-23T20:47:50.148Z,99901.63
2019-01-23T20:50:33.932Z,99907.32
2019-01-23T20:52:58.352Z,99912.98
2019-01-23T20:55:22.864Z,99916.61
2019-01-23T20:57:47.291Z,99919.39
2019-01-23T21:00:31.939Z,99920.50
2019-01-23T21:02:56.373Z,99918.80
2019-01-23T21:05:20.810Z,99922.08
2019-01-23T21:07:45.314Z,99926.48
2019-01-23T21:10:21.828Z,99922.56
2019-01-23T21:12:46.257Z,99924.66
2019-01-23T21:15:30.662Z,99929.62
2019-01-23T21:17:55.069Z,99933.63
2019-01-23T21:20:19.469Z,99937.53
2019-01-23T21:22:43.936Z,99943.73
2019-01-23T21:31:02.070Z,99938.23
2019-01-23T21:33:26.502Z,99940.02
2019-01-23T21:35:50.936Z,99945.77
2019-01-23T21:38:15.379Z,99946.83
2019-01-23T21:40:39.817Z,99955.47
2019-01-23T21:43:15.575Z,99958.30
2019-01-23T21:45:39.980Z,99959.05
2019-01-23T21:50:43.939Z,99961.19
2019-01-23T21:53:08.361Z,99951.73
2019-01-23T21:55:32.916Z,99964.53
2019-01-23T21:57:57.286Z,99976.32
2019-01-23T22:03:18.396Z,99983.53
2019-01-23T22:05:42.806Z,99980.70
2019-01-23T22:11:04.195Z,99990.62
2019-01-23T22:13:28.627Z,99991.68
2019-01-23T22:15:53.053Z,99992.04
2019-01-23T22:18:17.476Z,100000.63
2019-01-23T22:20:41.887Z,100007.55
2019-01-23T22:23:06.329Z,100011.95
2019-01-23T22:25:30.828Z,100008.59
2019-01-23T22:28:16.045Z,100013.54
2019-01-23T22:30:40.484Z,100014.13
2019-01-23T22:33:15.926Z,100020.49
2019-01-23T22:35:52.846Z,100021.55
2019-01-23T22:38:17.273Z,100018.77
2019-01-23T22:40:41.710Z,100025.02
2019-01-23T22:43:06.220Z,100022.05
2019-01-23T22:45:30.628Z,100016.48
2019-01-23T22:47:55.048Z,100033.20
2019-01-23T22:50:40.273Z,100041.64
2019-01-23T22:53:04.838Z,100047.44
2019-01-23T22:55:29.358Z,100039.92
2019-01-23T22:57:59.882Z,100052.78
2019-01-23T23:01:03.286Z,100047.70
2019-01-23T23:03:27.699Z,100048.80
2019-01-23T23:05:52.112Z,100042.09
2019-01-23T23:08:16.617Z,100055.50
2019-01-23T23:10:41.038Z,100052.28
2019-01-23T23:13:05.542Z,100054.59
2019-01-23T23:15:29.982Z,100052.86
2019-01-23T23:17:54.416Z,100048.88
2019-01-23T23:20:18.840Z,100052.08
2019-01-23T23:25:18.834Z,100062.66
2019-01-23T23:27:43.231Z,100062.09
2019-01-23T23:33:02.773Z,100074.68
2019-01-23T23:38:03.092Z,100082.83
2019-01-23T23:40:27.540Z,100085.97
2019-01-23T23:42:51.940Z,100089.34
2019-01-23T23:45:28.352Z,100085.55
2019-01-23T23:47:52.749Z,100090.32
2019-01-23T23:50:17.912Z,100088.46
2019-01-23T23:52:42.315Z,100095.70
2019-01-23T23:55:27.523Z,100097.97
2019-01-23T23:57:51.966Z,100097.25
